createdAt,value
2019-04-30T00:01:25.230Z,5.70
2019-04-30T00:04:16.306Z,6.83
2019-04-30T00:06:45.652Z,8.33
2019-04-30T00:09:18.949Z,4.47
2019-04-30T00:11:50.560Z,5.30
2019-04-30T00:14:18.254Z,6.13
2019-04-30T00:16:47.755Z,4.63
2019-04-30T00:19:19.640Z,5.37
2019-04-30T00:21:50.030Z,5.63
2019-04-30T00:24:18.249Z,5.40
2019-04-30T00:26:52.247Z,7.77
2019-04-30T00:29:26.519Z,5.30
2019-04-30T00:31:48.980Z,6.67
2019-04-30T00:34:18.083Z,4.67
2019-04-30T00:36:47.520Z,4.33
2019-04-30T00:39:16.874Z,5.83
2019-04-30T00:41:47.364Z,4.67
2019-04-30T00:44:19.857Z,4.57
2019-04-30T00:46:48.004Z,6.70
2019-04-30T00:49:22.988Z,5.30
2019-04-30T00:51:49.750Z,5.77
2019-04-30T00:54:22.523Z,4.17
2019-04-30T00:56:49.657Z,6.93
2019-04-30T00:59:18.635Z,5.27
2019-04-30T01:02:27.644Z,4.70
2019-04-30T01:04:52.977Z,5.60
2019-04-30T01:07:22.319Z,7.57
2019-04-30T01:09:51.311Z,6.10
2019-04-30T01:12:27.591Z,5.60
2019-04-30T01:14:53.332Z,4.50
2019-04-30T01:17:22.322Z,5.40
2019-04-30T01:19:54.484Z,5.47
2019-04-30T01:22:28.187Z,5.00
2019-04-30T01:24:53.717Z,4.97
2019-04-30T01:27:22.868Z,5.20
2019-04-30T01:29:52.130Z,5.43
2019-04-30T01:32:21.276Z,6.03
2019-04-30T01:34:53.733Z,5.47
2019-04-30T01:37:28.684Z,6.63
2019-04-30T01:39:51.922Z,5.30
2019-04-30T01:42:21.019Z,7.07
2019-04-30T01:44:53.539Z,4.67
2019-04-30T01:47:26.890Z,5.67
2019-04-30T01:49:51.537Z,4.83
2019-04-30T01:52:20.550Z,3.83
2019-04-30T01:54:49.513Z,4.67
2019-04-30T01:57:33.454Z,4.47
2019-04-30T02:00:21.829Z,4.60
2019-04-30T02:02:50.905Z,5.20
2019-04-30T02:05:20.102Z,6.23
2019-04-30T02:07:49.195Z,5.07
2019-04-30T02:10:18.708Z,5.97
2019-04-30T02:12:49.313Z,5.33
2019-04-30T02:15:19.254Z,5.10
2019-04-30T02:17:50.237Z,4.53
2019-04-30T02:20:19.309Z,5.00
2019-04-30T02:22:48.696Z,6.30
2019-04-30T02:25:19.379Z,5.93
2019-04-30T02:27:48.900Z,5.63
2019-04-30T02:30:20.907Z,4.93
2019-04-30T02:32:52.521Z,5.63
2019-04-30T02:35:45.098Z,4.10
2019-04-30T02:38:34.293Z,4.93
2019-04-30T02:41:06.480Z,4.60
2019-04-30T02:43:36.488Z,5.37
2019-04-30T02:46:06.619Z,4.07
2019-04-30T02:48:39.740Z,4.87
2019-04-30T02:51:11.859Z,4.67
2019-04-30T02:54:15.938Z,5.37
2019-04-30T02:56:50.475Z,5.70
2019-04-30T02:59:20.275Z,6.40
2019-04-30T03:01:50.344Z,5.03
2019-04-30T03:04:19.822Z,4.27
2019-04-30T03:06:50.289Z,5.80
2019-04-30T03:09:20.407Z,5.03
2019-04-30T03:11:50.011Z,5.27
2019-04-30T03:14:20.057Z,4.50
2019-04-30T03:17:14.895Z,4.83
2019-04-30T03:20:03.517Z,4.23
2019-04-30T03:22:31.772Z,7.80
2019-04-30T03:25:00.937Z,6.17
2019-04-30T03:27:30.264Z,3.70
2019-04-30T03:30:00.133Z,5.13
2019-04-30T03:32:31.658Z,6.33
2019-04-30T03:35:03.271Z,6.40
2019-04-30T03:37:30.933Z,4.27
2019-04-30T03:40:00.635Z,7.63
2019-04-30T03:42:30.536Z,4.43
2019-04-30T03:44:59.489Z,4.90
2019-04-30T03:47:30.107Z,7.77
2019-04-30T03:50:00.035Z,4.10
2019-04-30T03:52:29.936Z,4.40
2019-04-30T03:55:02.446Z,3.90
2019-04-30T03:57:30.419Z,8.27
2019-04-30T03:59:59.969Z,6.20
2019-04-30T04:02:40.459Z,4.87
2019-04-30T04:05:31.460Z,7.03
2019-04-30T04:08:19.593Z,6.93
2019-04-30T04:11:00.553Z,5.50
2019-04-30T04:13:29.988Z,4.63
2019-04-30T04:16:00.144Z,4.87
2019-04-30T04:18:30.186Z,5.83
2019-04-30T04:21:08.696Z,4.73
2019-04-30T04:23:32.874Z,5.23
2019-04-30T04:26:00.878Z,6.90
2019-04-30T04:28:30.145Z,5.33
2019-04-30T04:31:00.140Z,4.30
2019-04-30T04:33:32.458Z,5.00
2019-04-30T04:36:01.509Z,5.13
2019-04-30T04:38:31.097Z,5.27
2019-04-30T04:41:03.070Z,5.13
2019-04-30T04:43:31.676Z,5.77
2019-04-30T04:46:00.804Z,9.03
2019-04-30T04:48:30.247Z,5.43
2019-04-30T04:51:00.061Z,5.23
2019-04-30T04:53:30.365Z,5.60
2019-04-30T04:55:59.968Z,5.73
2019-04-30T04:58:30.271Z,5.93
2019-04-30T05:01:00.010Z,6.40
2019-04-30T05:03:40.024Z,7.30
2019-04-30T05:06:11.728Z,4.43
2019-04-30T05:08:42.331Z,5.33
2019-04-30T05:11:12.284Z,4.37
2019-04-30T05:13:41.359Z,6.83
2019-04-30T05:16:10.849Z,5.93
2019-04-30T05:18:40.430Z,5.60
2019-04-30T05:21:09.963Z,5.43
2019-04-30T05:23:42.352Z,6.03
2019-04-30T05:26:11.262Z,5.93
2019-04-30T05:28:40.615Z,6.47
2019-04-30T05:31:09.815Z,5.27
2019-04-30T05:33:39.174Z,7.60
2019-04-30T05:36:09.389Z,7.60
2019-04-30T05:38:39.305Z,7.17
2019-04-30T05:41:09.319Z,6.57
2019-04-30T05:43:39.185Z,5.27
2019-04-30T05:46:10.937Z,4.90
2019-04-30T05:48:44.730Z,5.33
2019-04-30T05:51:13.996Z,7.90
2019-04-30T05:53:43.236Z,7.80
2019-04-30T05:56:12.335Z,5.43
2019-04-30T05:58:41.543Z,7.00
2019-04-30T06:01:10.894Z,5.23
2019-04-30T06:03:40.262Z,5.87
2019-04-30T06:06:11.523Z,7.97
2019-04-30T06:08:48.967Z,4.60
2019-04-30T06:11:34.226Z,5.43
2019-04-30T06:14:29.960Z,4.40
2019-04-30T06:17:09.240Z,5.37
2019-04-30T06:19:39.710Z,3.90
2019-04-30T06:22:11.003Z,5.13
2019-04-30T06:24:42.529Z,5.00
2019-04-30T06:27:12.189Z,6.20
2019-04-30T06:29:42.024Z,6.03
2019-04-30T06:32:11.618Z,4.17
2019-04-30T06:34:41.961Z,4.10
2019-04-30T06:37:11.332Z,6.50
2019-04-30T06:39:40.784Z,6.37
2019-04-30T06:42:12.817Z,6.27
2019-04-30T06:44:42.038Z,5.20
2019-04-30T06:47:12.189Z,5.70
2019-04-30T06:49:41.477Z,4.07
2019-04-30T06:52:20.375Z,4.33
2019-04-30T06:54:42.449Z,5.30
2019-04-30T06:57:12.174Z,5.03
2019-04-30T06:59:41.519Z,4.00
2019-04-30T07:02:11.763Z,6.63
2019-04-30T07:04:41.423Z,5.40
2019-04-30T07:07:14.351Z,4.20
2019-04-30T07:10:01.198Z,3.90
2019-04-30T07:13:00.998Z,3.23
2019-04-30T07:15:30.107Z,5.00
2019-04-30T07:17:59.511Z,4.40
2019-04-30T07:20:29.117Z,3.87
2019-04-30T07:23:02.974Z,3.67
2019-04-30T07:25:29.949Z,4.27
2019-04-30T07:27:59.922Z,4.90
2019-04-30T07:30:30.944Z,4.60
2019-04-30T07:33:00.512Z,3.97
2019-04-30T07:35:29.896Z,5.87
2019-04-30T07:38:04.712Z,3.60
2019-04-30T07:40:31.065Z,6.10
2019-04-30T07:43:01.850Z,5.03
2019-04-30T07:45:32.125Z,3.90
2019-04-30T07:48:01.592Z,4.10
2019-04-30T07:50:34.692Z,3.07
2019-04-30T07:53:06.698Z,4.43
2019-04-30T07:55:36.675Z,2.80
2019-04-30T07:58:05.862Z,4.90
2019-04-30T08:00:35.117Z,5.27
2019-04-30T08:03:23.567Z,3.33
2019-04-30T08:05:54.177Z,5.00
2019-04-30T08:08:25.680Z,3.13
2019-04-30T08:10:54.494Z,3.27
2019-04-30T08:13:24.065Z,2.80
2019-04-30T08:15:53.651Z,3.17
2019-04-30T08:18:22.813Z,4.37
2019-04-30T08:20:52.182Z,3.13
2019-04-30T08:23:34.004Z,4.00
2019-04-30T08:25:53.511Z,2.97
2019-04-30T08:28:22.615Z,2.73
2019-04-30T08:30:51.684Z,3.13
2019-04-30T08:33:21.221Z,4.13
2019-04-30T08:35:50.720Z,4.77
2019-04-30T08:38:19.835Z,3.57
2019-04-30T08:40:56.069Z,5.33
2019-04-30T08:43:21.271Z,2.90
2019-04-30T08:45:50.517Z,2.83
2019-04-30T08:48:19.851Z,2.67
2019-04-30T08:50:49.662Z,3.27
2019-04-30T08:53:29.040Z,2.63
2019-04-30T08:55:49.851Z,4.03
2019-04-30T08:58:20.561Z,3.37
2019-04-30T09:00:50.208Z,3.37
2019-04-30T09:03:19.545Z,2.83
2019-04-30T09:06:09.321Z,2.27
2019-04-30T09:08:40.239Z,2.50
2019-04-30T09:11:22.075Z,4.10
2019-04-30T09:13:40.393Z,2.97
2019-04-30T09:16:09.688Z,2.90
2019-04-30T09:18:39.331Z,2.80
2019-04-30T09:21:09.065Z,3.97
2019-04-30T09:23:47.534Z,4.23
2019-04-30T09:26:09.554Z,2.87
2019-04-30T09:28:40.779Z,3.63
2019-04-30T09:31:10.057Z,2.70
2019-04-30T09:33:39.434Z,2.83
2019-04-30T09:36:09.149Z,3.77
2019-04-30T09:38:58.741Z,4.13
2019-04-30T09:41:28.813Z,2.73
2019-04-30T09:44:00.713Z,3.73
2019-04-30T09:46:32.291Z,3.27
2019-04-30T09:49:01.645Z,4.63
2019-04-30T09:51:31.510Z,3.13
2019-04-30T09:54:03.727Z,3.53
2019-04-30T09:56:31.928Z,2.80
2019-04-30T09:59:01.318Z,3.03
2019-04-30T10:01:32.752Z,2.87
2019-04-30T10:04:02.101Z,2.57
2019-04-30T10:06:39.702Z,2.30
2019-04-30T10:09:04.967Z,2.23
2019-04-30T10:11:50.057Z,2.17
2019-04-30T10:14:19.814Z,2.47
2019-04-30T10:17:14.175Z,3.27
2019-04-30T10:19:43.577Z,2.53
2019-04-30T10:22:14.300Z,2.13
2019-04-30T10:24:45.051Z,3.20
2019-04-30T10:27:14.303Z,2.13
2019-04-30T10:29:50.263Z,3.30
2019-04-30T10:32:19.370Z,3.57
2019-04-30T10:34:48.476Z,2.97
2019-04-30T10:37:20.596Z,2.27
2019-04-30T10:39:50.576Z,2.50
2019-04-30T10:42:20.452Z,3.50
2019-04-30T10:44:50.028Z,2.57
2019-04-30T10:47:19.409Z,9.57
2019-04-30T10:49:49.171Z,3.47
2019-04-30T10:52:19.248Z,3.20
2019-04-30T10:54:49.643Z,2.97
2019-04-30T10:57:19.611Z,3.83
2019-04-30T10:59:51.205Z,3.97
2019-04-30T11:02:20.381Z,5.83
2019-04-30T11:04:49.622Z,2.43
2019-04-30T11:07:18.999Z,2.97
2019-04-30T11:09:49.462Z,3.77
2019-04-30T11:12:19.367Z,2.80
2019-04-30T11:14:48.942Z,3.17
2019-04-30T11:17:19.757Z,3.40
2019-04-30T11:19:49.653Z,3.67
2019-04-30T11:22:19.686Z,2.80
2019-04-30T11:24:58.899Z,4.43
2019-04-30T11:27:21.530Z,2.70
2019-04-30T11:29:51.314Z,6.87
2019-04-30T11:32:23.066Z,2.67
2019-04-30T11:34:52.573Z,3.27
2019-04-30T11:37:21.803Z,2.80
2019-04-30T11:39:51.044Z,5.47
2019-04-30T11:42:20.366Z,3.50
2019-04-30T11:44:49.983Z,3.70
2019-04-30T11:47:25.882Z,3.67
2019-04-30T11:49:55.236Z,2.57
2019-04-30T11:52:24.569Z,2.70
2019-04-30T11:54:54.599Z,2.40
2019-04-30T11:57:24.162Z,5.33
2019-04-30T11:59:53.621Z,3.73
2019-04-30T12:02:36.837Z,4.40
2019-04-30T12:05:07.644Z,2.80
2019-04-30T12:07:45.482Z,3.77
2019-04-30T12:10:36.726Z,3.03
2019-04-30T12:13:09.592Z,4.57
2019-04-30T12:15:42.153Z,2.83
2019-04-30T12:18:11.818Z,3.40
2019-04-30T12:20:41.224Z,3.87
2019-04-30T12:23:11.896Z,4.37
2019-04-30T12:25:41.462Z,4.13
2019-04-30T12:28:10.844Z,6.30
2019-04-30T12:30:40.165Z,4.33
2019-04-30T12:33:09.473Z,4.20
2019-04-30T12:35:40.686Z,5.83
2019-04-30T12:38:10.109Z,3.90
2019-04-30T12:40:39.937Z,3.10
2019-04-30T12:43:09.285Z,2.53
2019-04-30T12:45:39.387Z,3.90
2019-04-30T12:48:14.322Z,3.23
2019-04-30T12:50:54.885Z,3.17
2019-04-30T12:53:37.409Z,2.63
2019-04-30T12:56:27.146Z,2.87
2019-04-30T12:58:57.912Z,4.53
2019-04-30T13:01:31.742Z,3.70
2019-04-30T13:04:01.236Z,2.63
2019-04-30T13:06:30.107Z,5.20
2019-04-30T13:09:00.750Z,4.43
2019-04-30T13:11:31.247Z,4.17
2019-04-30T13:14:01.329Z,4.40
2019-04-30T13:16:31.225Z,3.63
2019-04-30T13:19:01.358Z,6.77
2019-04-30T13:21:30.606Z,3.03
2019-04-30T13:23:59.887Z,2.53
2019-04-30T13:26:29.520Z,4.50
2019-04-30T13:29:07.929Z,2.50
2019-04-30T13:31:37.058Z,4.13
2019-04-30T13:34:23.897Z,2.63
2019-04-30T13:36:53.112Z,3.33
2019-04-30T13:39:29.191Z,2.83
2019-04-30T13:42:23.282Z,4.10
2019-04-30T13:44:52.738Z,3.03
2019-04-30T13:47:21.915Z,3.17
2019-04-30T13:49:53.049Z,3.40
2019-04-30T13:52:24.576Z,2.57
2019-04-30T13:54:53.839Z,2.60
2019-04-30T13:57:23.097Z,4.73
2019-04-30T13:59:52.314Z,2.60
2019-04-30T14:02:21.452Z,3.73
2019-04-30T14:05:05.284Z,3.57
2019-04-30T14:07:51.989Z,2.53
2019-04-30T14:10:22.025Z,3.77
2019-04-30T14:12:55.396Z,2.43
2019-04-30T14:15:24.558Z,2.97
2019-04-30T14:17:53.799Z,2.60
2019-04-30T14:20:23.427Z,2.50
2019-04-30T14:22:52.554Z,3.30
2019-04-30T14:25:21.834Z,3.00
2019-04-30T14:27:54.755Z,2.43
2019-04-30T14:30:24.020Z,3.70
2019-04-30T14:32:53.456Z,3.43
2019-04-30T14:35:22.745Z,3.63
2019-04-30T14:37:52.008Z,7.10
2019-04-30T14:40:21.839Z,2.80
2019-04-30T14:43:09.842Z,3.80
2019-04-30T14:45:56.339Z,2.80
2019-04-30T14:48:33.287Z,2.47
2019-04-30T14:51:02.877Z,3.73
2019-04-30T14:53:40.842Z,3.93
2019-04-30T14:56:44.573Z,3.60
2019-04-30T14:59:31.334Z,3.47
2019-04-30T15:02:29.650Z,3.30
2019-04-30T15:05:00.930Z,3.07
2019-04-30T15:07:30.206Z,4.50
2019-04-30T15:09:59.403Z,3.03
2019-04-30T15:12:28.584Z,3.70
2019-04-30T15:14:59.186Z,3.87
2019-04-30T15:17:28.654Z,3.20
2019-04-30T15:19:58.752Z,3.33
2019-04-30T15:22:29.083Z,4.10
2019-04-30T15:24:59.193Z,2.97
2019-04-30T15:27:28.955Z,2.77
2019-04-30T15:29:59.317Z,3.30
2019-04-30T15:32:30.614Z,2.80
2019-04-30T15:34:59.636Z,4.67
2019-04-30T15:37:28.899Z,3.10
2019-04-30T15:39:59.079Z,2.83
2019-04-30T15:42:28.386Z,2.83
2019-04-30T15:44:59.273Z,3.00
2019-04-30T15:47:28.855Z,2.77
2019-04-30T15:49:59.688Z,4.13
2019-04-30T15:52:29.208Z,4.07
2019-04-30T15:54:59.215Z,3.33
2019-04-30T15:57:29.515Z,3.17
2019-04-30T15:59:59.030Z,2.90
2019-04-30T16:02:30.998Z,3.83
2019-04-30T16:05:28.501Z,3.57
2019-04-30T16:08:10.629Z,2.70
2019-04-30T16:11:07.428Z,4.10
2019-04-30T16:13:56.141Z,4.23
2019-04-30T16:16:29.154Z,2.97
2019-04-30T16:18:59.701Z,4.57
2019-04-30T16:21:29.473Z,4.07
2019-04-30T16:23:59.050Z,13.20
2019-04-30T16:26:29.129Z,4.70
2019-04-30T16:28:58.745Z,3.07
2019-04-30T16:31:29.147Z,3.10
2019-04-30T16:34:01.375Z,4.37
2019-04-30T16:36:30.697Z,4.90
2019-04-30T16:39:05.202Z,4.17
2019-04-30T16:41:34.468Z,4.07
2019-04-30T16:44:03.763Z,5.37
2019-04-30T16:46:35.156Z,3.10
2019-04-30T16:49:04.723Z,2.73
2019-04-30T16:51:33.804Z,3.43
2019-04-30T16:54:02.861Z,3.80
2019-04-30T16:56:32.037Z,3.40
2019-04-30T16:59:02.553Z,6.27
2019-04-30T17:01:33.866Z,2.90
2019-04-30T17:04:13.123Z,3.03
2019-04-30T17:06:46.587Z,4.43
2019-04-30T17:09:37.114Z,6.50
2019-04-30T17:12:14.507Z,4.93
2019-04-30T17:14:45.507Z,5.03
2019-04-30T17:17:15.175Z,5.47
2019-04-30T17:19:44.805Z,4.33
2019-04-30T17:22:18.537Z,4.33
2019-04-30T17:24:56.737Z,3.30
2019-04-30T17:27:26.801Z,4.47
2019-04-30T17:29:57.221Z,5.03
2019-04-30T17:32:29.519Z,4.10
2019-04-30T17:35:00.690Z,6.37
2019-04-30T17:37:31.566Z,3.73
2019-04-30T17:40:00.902Z,4.27
2019-04-30T17:42:30.097Z,6.43
2019-04-30T17:45:02.757Z,7.93
2019-04-30T17:47:32.328Z,6.87
2019-04-30T17:50:04.430Z,4.73
2019-04-30T17:52:33.507Z,6.13
2019-04-30T17:55:02.849Z,4.47
2019-04-30T17:57:34.605Z,4.67
2019-04-30T18:00:16.132Z,4.37
2019-04-30T18:02:35.608Z,6.13
2019-04-30T18:05:09.160Z,9.10
2019-04-30T18:07:39.557Z,4.63
2019-04-30T18:10:10.564Z,4.00
2019-04-30T18:12:40.045Z,5.27
2019-04-30T18:15:15.347Z,3.30
2019-04-30T18:17:51.220Z,3.73
2019-04-30T18:20:35.223Z,6.23
2019-04-30T18:23:22.774Z,5.37
2019-04-30T18:25:57.467Z,5.03
2019-04-30T18:28:29.033Z,3.97
2019-04-30T18:30:59.022Z,4.03
2019-04-30T18:33:28.619Z,6.80
2019-04-30T18:35:59.699Z,10.47
2019-04-30T18:38:32.715Z,6.07
2019-04-30T18:41:02.441Z,5.33
2019-04-30T18:43:32.150Z,4.80
2019-04-30T18:46:01.694Z,5.60
2019-04-30T18:48:30.767Z,6.53
2019-04-30T18:50:59.847Z,10.13
2019-04-30T18:53:30.565Z,12.93
2019-04-30T18:55:59.801Z,30.00
2019-04-30T18:58:39.614Z,32.37
2019-04-30T19:01:17.698Z,25.07
2019-04-30T19:03:49.236Z,12.20
2019-04-30T19:06:25.515Z,8.70
2019-04-30T19:09:03.962Z,7.80
2019-04-30T19:11:43.048Z,7.67
2019-04-30T19:14:29.506Z,8.30
2019-04-30T19:17:23.712Z,9.97
2019-04-30T19:20:12.813Z,11.33
2019-04-30T19:22:43.147Z,9.20
2019-04-30T19:25:13.168Z,12.00
2019-04-30T19:27:43.345Z,12.60
2019-04-30T19:30:12.830Z,22.63
2019-04-30T19:32:42.742Z,18.33
2019-04-30T19:35:13.372Z,16.17
2019-04-30T19:37:44.155Z,13.23
2019-04-30T19:40:21.148Z,11.73
2019-04-30T19:42:51.023Z,20.00
2019-04-30T19:45:20.325Z,17.67
2019-04-30T19:47:51.010Z,11.57
2019-04-30T19:50:20.483Z,7.83
2019-04-30T19:52:51.442Z,6.50
2019-04-30T19:55:22.766Z,11.10
2019-04-30T19:57:52.311Z,12.53
2019-04-30T20:00:21.636Z,17.23
2019-04-30T20:02:51.246Z,15.67
2019-04-30T20:05:20.945Z,14.00
2019-04-30T20:07:50.503Z,11.63
2019-04-30T20:10:20.393Z,9.97
2019-04-30T20:12:49.906Z,9.23
2019-04-30T20:15:22.183Z,7.20
2019-04-30T20:17:50.183Z,18.17
2019-04-30T20:20:25.906Z,20.90
2019-04-30T20:22:56.169Z,14.03
2019-04-30T20:25:27.989Z,8.57
2019-04-30T20:27:58.437Z,8.53
2019-04-30T20:30:29.707Z,9.33
2019-04-30T20:32:59.459Z,8.17
2019-04-30T20:35:29.801Z,9.57
2019-04-30T20:38:23.626Z,8.57
2019-04-30T20:41:00.095Z,9.93
2019-04-30T20:43:26.274Z,11.70
2019-04-30T20:45:55.978Z,14.10
2019-04-30T20:48:25.425Z,13.33
2019-04-30T20:50:56.939Z,10.57
2019-04-30T20:53:26.643Z,13.30
2019-04-30T20:55:59.189Z,22.27
2019-04-30T20:58:28.829Z,13.47
2019-04-30T21:01:03.571Z,11.13
2019-04-30T21:03:30.158Z,7.27
2019-04-30T21:06:00.709Z,12.13
2019-04-30T21:08:30.675Z,11.67
2019-04-30T21:10:59.934Z,6.93
2019-04-30T21:13:29.695Z,8.00
2019-04-30T21:15:59.569Z,6.67
2019-04-30T21:18:32.352Z,6.07
2019-04-30T21:21:00.938Z,7.50
2019-04-30T21:23:30.584Z,6.63
2019-04-30T21:26:00.773Z,10.80
2019-04-30T21:28:30.915Z,7.87
2019-04-30T21:31:03.349Z,6.83
2019-04-30T21:33:38.914Z,5.83
2019-04-30T21:36:18.422Z,6.40
2019-04-30T21:38:49.028Z,5.67
2019-04-30T21:41:19.549Z,10.13
2019-04-30T21:43:51.327Z,5.67
2019-04-30T21:46:22.763Z,5.67
2019-04-30T21:48:52.585Z,6.60
2019-04-30T21:51:22.129Z,5.30
2019-04-30T21:53:52.907Z,7.43
2019-04-30T21:56:22.374Z,13.43
2019-04-30T21:58:52.163Z,13.83
2019-04-30T22:01:25.961Z,8.57
2019-04-30T22:03:55.418Z,7.00
2019-04-30T22:06:24.790Z,7.43
2019-04-30T22:08:54.131Z,8.20
2019-04-30T22:11:25.186Z,7.20
2019-04-30T22:13:55.690Z,9.23
2019-04-30T22:16:25.870Z,7.77
2019-04-30T22:18:55.495Z,6.20
2019-04-30T22:21:24.746Z,9.70
2019-04-30T22:23:54.047Z,8.70
2019-04-30T22:26:23.561Z,7.83
2019-04-30T22:28:53.877Z,6.33
2019-04-30T22:31:26.247Z,10.33
2019-04-30T22:33:55.893Z,7.33
2019-04-30T22:36:29.942Z,6.37
2019-04-30T22:39:13.031Z,5.53
2019-04-30T22:41:42.299Z,7.97
2019-04-30T22:44:11.370Z,7.57
2019-04-30T22:46:40.719Z,7.30
2019-04-30T22:49:10.244Z,7.10
2019-04-30T22:51:39.558Z,7.97
2019-04-30T22:54:08.636Z,7.40
2019-04-30T22:56:37.837Z,6.60
2019-04-30T22:59:09.816Z,7.73
2019-04-30T23:01:55.351Z,6.40
2019-04-30T23:04:34.445Z,6.43
2019-04-30T23:07:05.816Z,8.73
2019-04-30T23:09:34.879Z,6.83
2019-04-30T23:12:04.563Z,7.83
2019-04-30T23:14:34.093Z,6.40
2019-04-30T23:17:03.462Z,7.20
2019-04-30T23:19:32.585Z,9.70
2019-04-30T23:22:02.029Z,8.33
2019-04-30T23:24:31.407Z,6.80
2019-04-30T23:27:00.700Z,8.23
2019-04-30T23:29:29.986Z,7.13
2019-04-30T23:31:59.155Z,7.20
2019-04-30T23:34:28.286Z,7.03
2019-04-30T23:36:57.573Z,8.90
2019-04-30T23:39:26.757Z,6.73
2019-04-30T23:41:56.255Z,8.30
2019-04-30T23:44:25.405Z,7.73
2019-04-30T23:46:54.486Z,7.27
2019-04-30T23:49:23.694Z,7.30
2019-04-30T23:51:52.683Z,8.77
2019-04-30T23:54:21.747Z,7.93
2019-04-30T23:56:50.888Z,8.70
2019-04-30T23:59:21.047Z,8.03
